sensor_id;sensor_type;location;lat;lon;timestamp;temperature;humidity
70170;DHT22;57543;45.442;9.212;2022-08-21T00:01:46;26.78;50.58
70170;DHT22;57543;45.442;9.212;2022-08-21T00:04:50;26.80;50.72
70170;DHT22;57543;45.442;9.212;2022-08-21T00:07:55;26.83;51.11
70170;DHT22;57543;45.442;9.212;2022-08-21T00:10:58;26.83;52.00
70170;DHT22;57543;45.442;9.212;2022-08-21T00:14:05;26.78;52.45
70170;DHT22;57543;45.442;9.212;2022-08-21T00:17:10;26.68;53.69
70170;DHT22;57543;45.442;9.212;2022-08-21T00:20:15;26.68;51.29
70170;DHT22;57543;45.442;9.212;2022-08-21T00:23:19;26.65;50.57
70170;DHT22;57543;45.442;9.212;2022-08-21T00:26:23;26.63;50.88
70170;DHT22;57543;45.442;9.212;2022-08-21T00:29:27;26.65;51.11
70170;DHT22;57543;45.442;9.212;2022-08-21T00:32:31;26.62;51.64
70170;DHT22;57543;45.442;9.212;2022-08-21T00:35:38;26.65;51.42
70170;DHT22;57543;45.442;9.212;2022-08-21T00:38:42;26.66;52.53
70170;DHT22;57543;45.442;9.212;2022-08-21T00:41:46;26.65;52.09
70170;DHT22;57543;45.442;9.212;2022-08-21T00:44:50;26.65;50.55
70170;DHT22;57543;45.442;9.212;2022-08-21T00:47:53;26.63;49.39
70170;DHT22;57543;45.442;9.212;2022-08-21T00:51:05;26.56;49.01
70170;DHT22;57543;45.442;9.212;2022-08-21T00:54:10;26.55;49.56
70170;DHT22;57543;45.442;9.212;2022-08-21T00:57:20;26.55;49.45
70170;DHT22;57543;45.442;9.212;2022-08-21T01:00:31;26.49;48.83
70170;DHT22;57543;45.442;9.212;2022-08-21T01:03:35;26.49;48.32
70170;DHT22;57543;45.442;9.212;2022-08-21T01:06:39;26.46;48.51
70170;DHT22;57543;45.442;9.212;2022-08-21T01:09:46;26.45;49.32
70170;DHT22;57543;45.442;9.212;2022-08-21T01:12:52;26.38;49.23
70170;DHT22;57543;45.442;9.212;2022-08-21T01:15:58;26.18;51.13
70170;DHT22;57543;45.442;9.212;2022-08-21T01:19:02;26.20;50.92
70170;DHT22;57543;45.442;9.212;2022-08-21T01:22:06;26.24;51.16
70170;DHT22;57543;45.442;9.212;2022-08-21T01:25:14;26.28;51.78
70170;DHT22;57543;45.442;9.212;2022-08-21T01:28:19;26.27;53.30
70170;DHT22;57543;45.442;9.212;2022-08-21T01:31:24;26.24;54.74
70170;DHT22;57543;45.442;9.212;2022-08-21T01:34:28;26.07;55.50
70170;DHT22;57543;45.442;9.212;2022-08-21T01:37:31;26.04;54.76
70170;DHT22;57543;45.442;9.212;2022-08-21T01:40:35;26.03;54.82
70170;DHT22;57543;45.442;9.212;2022-08-21T01:43:39;25.98;55.46
70170;DHT22;57543;45.442;9.212;2022-08-21T01:46:43;25.92;53.38
70170;DHT22;57543;45.442;9.212;2022-08-21T01:49:46;25.73;53.39
70170;DHT22;57543;45.442;9.212;2022-08-21T01:52:50;25.63;51.58
70170;DHT22;57543;45.442;9.212;2022-08-21T01:55:55;25.72;52.01
70170;DHT22;57543;45.442;9.212;2022-08-21T01:58:59;25.75;51.92
70170;DHT22;57543;45.442;9.212;2022-08-21T02:02:03;25.79;50.50
70170;DHT22;57543;45.442;9.212;2022-08-21T02:05:09;25.86;49.79
70170;DHT22;57543;45.442;9.212;2022-08-21T02:08:13;25.89;49.64
70170;DHT22;57543;45.442;9.212;2022-08-21T02:11:17;25.94;48.37
70170;DHT22;57543;45.442;9.212;2022-08-21T02:14:20;25.97;47.85
70170;DHT22;57543;45.442;9.212;2022-08-21T02:17:24;25.75;50.54
70170;DHT22;57543;45.442;9.212;2022-08-21T02:20:31;25.50;51.51
70170;DHT22;57543;45.442;9.212;2022-08-21T02:23:35;25.56;51.57
70170;DHT22;57543;45.442;9.212;2022-08-21T02:26:38;25.63;51.26
70170;DHT22;57543;45.442;9.212;2022-08-21T02:29:42;25.73;51.13
70170;DHT22;57543;45.442;9.212;2022-08-21T02:32:46;25.79;52.52
70170;DHT22;57543;45.442;9.212;2022-08-21T02:35:50;25.73;52.60
70170;DHT22;57543;45.442;9.212;2022-08-21T02:38:54;25.61;52.91
70170;DHT22;57543;45.442;9.212;2022-08-21T02:41:59;25.65;52.90
70170;DHT22;57543;45.442;9.212;2022-08-21T02:45:03;25.58;53.24
70170;DHT22;57543;45.442;9.212;2022-08-21T02:48:09;25.66;53.53
70170;DHT22;57543;45.442;9.212;2022-08-21T02:51:16;25.66;53.97
70170;DHT22;57543;45.442;9.212;2022-08-21T02:54:20;25.41;54.70
70170;DHT22;57543;45.442;9.212;2022-08-21T02:57:24;25.39;54.89
70170;DHT22;57543;45.442;9.212;2022-08-21T03:00:29;25.42;54.96
70170;DHT22;57543;45.442;9.212;2022-08-21T03:03:33;25.41;55.37
70170;DHT22;57543;45.442;9.212;2022-08-21T03:06:38;25.37;55.72
70170;DHT22;57543;45.442;9.212;2022-08-21T03:09:42;25.10;57.08
70170;DHT22;57543;45.442;9.212;2022-08-21T03:12:46;25.04;57.35
70170;DHT22;57543;45.442;9.212;2022-08-21T03:15:50;24.98;57.51
70170;DHT22;57543;45.442;9.212;2022-08-21T03:18:54;25.04;57.64
70170;DHT22;57543;45.442;9.212;2022-08-21T03:21:58;25.06;57.82
70170;DHT22;57543;45.442;9.212;2022-08-21T03:25:02;25.00;58.61
70170;DHT22;57543;45.442;9.212;2022-08-21T03:28:09;24.97;58.30
70170;DHT22;57543;45.442;9.212;2022-08-21T03:31:13;24.90;59.07
70170;DHT22;57543;45.442;9.212;2022-08-21T03:34:17;24.84;59.36
70170;DHT22;57543;45.442;9.212;2022-08-21T03:37:21;24.79;59.61
70170;DHT22;57543;45.442;9.212;2022-08-21T03:40:24;24.79;59.65
70170;DHT22;57543;45.442;9.212;2022-08-21T03:43:28;24.76;59.99
70170;DHT22;57543;45.442;9.212;2022-08-21T03:46:32;24.70;60.35
70170;DHT22;57543;45.442;9.212;2022-08-21T03:49:37;24.63;60.64
70170;DHT22;57543;45.442;9.212;2022-08-21T03:52:41;24.53;60.58
70170;DHT22;57543;45.442;9.212;2022-08-21T03:55:46;24.38;60.68
70170;DHT22;57543;45.442;9.212;2022-08-21T03:58:50;24.42;60.48
70170;DHT22;57543;45.442;9.212;2022-08-21T04:02:00;24.42;60.92
70170;DHT22;57543;45.442;9.212;2022-08-21T04:05:05;24.48;61.01
70170;DHT22;57543;45.442;9.212;2022-08-21T04:08:09;24.45;61.13
70170;DHT22;57543;45.442;9.212;2022-08-21T04:11:13;24.33;60.71
70170;DHT22;57543;45.442;9.212;2022-08-21T04:14:19;24.29;60.94
70170;DHT22;57543;45.442;9.212;2022-08-21T04:17:23;24.35;60.36
70170;DHT22;57543;45.442;9.212;2022-08-21T04:20:27;24.42;60.44
70170;DHT22;57543;45.442;9.212;2022-08-21T04:23:31;24.47;60.84
70170;DHT22;57543;45.442;9.212;2022-08-21T04:26:36;24.52;60.57
70170;DHT22;57543;45.442;9.212;2022-08-21T04:29:39;24.52;60.43
70170;DHT22;57543;45.442;9.212;2022-08-21T04:32:45;24.55;60.65
70170;DHT22;57543;45.442;9.212;2022-08-21T04:35:50;24.52;60.84
70170;DHT22;57543;45.442;9.212;2022-08-21T04:38:53;24.48;60.95
70170;DHT22;57543;45.442;9.212;2022-08-21T04:41:57;24.42;60.90
70170;DHT22;57543;45.442;9.212;2022-08-21T04:45:01;24.42;60.58
70170;DHT22;57543;45.442;9.212;2022-08-21T04:48:09;24.45;61.08
70170;DHT22;57543;45.442;9.212;2022-08-21T04:51:16;24.28;60.72
70170;DHT22;57543;45.442;9.212;2022-08-21T04:54:21;24.36;61.23
70170;DHT22;57543;45.442;9.212;2022-08-21T04:57:26;24.45;61.43
70170;DHT22;57543;45.442;9.212;2022-08-21T05:00:29;24.52;61.28
70170;DHT22;57543;45.442;9.212;2022-08-21T05:03:34;24.51;60.98
70170;DHT22;57543;45.442;9.212;2022-08-21T05:06:41;24.52;61.08
70170;DHT22;57543;45.442;9.212;2022-08-21T05:09:48;24.49;60.91
70170;DHT22;57543;45.442;9.212;2022-08-21T05:12:51;24.49;60.53
70170;DHT22;57543;45.442;9.212;2022-08-21T05:15:56;24.52;60.63
70170;DHT22;57543;45.442;9.212;2022-08-21T05:18:59;24.56;60.43
70170;DHT22;57543;45.442;9.212;2022-08-21T05:22:03;24.62;60.45
70170;DHT22;57543;45.442;9.212;2022-08-21T05:25:08;24.60;60.14
70170;DHT22;57543;45.442;9.212;2022-08-21T05:28:12;24.63;59.92
70170;DHT22;57543;45.442;9.212;2022-08-21T05:31:16;24.69;59.53
70170;DHT22;57543;45.442;9.212;2022-08-21T05:34:22;24.67;58.64
70170;DHT22;57543;45.442;9.212;2022-08-21T05:37:26;24.77;58.19
70170;DHT22;57543;45.442;9.212;2022-08-21T05:40:31;24.72;57.36
70170;DHT22;57543;45.442;9.212;2022-08-21T05:43:35;24.86;57.28
70170;DHT22;57543;45.442;9.212;2022-08-21T05:46:39;24.82;56.84
70170;DHT22;57543;45.442;9.212;2022-08-21T05:49:43;24.98;56.88
70170;DHT22;57543;45.442;9.212;2022-08-21T05:52:47;25.04;56.75
70170;DHT22;57543;45.442;9.212;2022-08-21T05:55:51;25.15;56.14
70170;DHT22;57543;45.442;9.212;2022-08-21T05:58:55;25.12;56.14
70170;DHT22;57543;45.442;9.212;2022-08-21T06:01:59;25.25;55.92
70170;DHT22;57543;45.442;9.212;2022-08-21T06:05:02;25.32;55.54
70170;DHT22;57543;45.442;9.212;2022-08-21T06:08:07;25.38;55.84
70170;DHT22;57543;45.442;9.212;2022-08-21T06:11:11;25.42;56.53
70170;DHT22;57543;45.442;9.212;2022-08-21T06:14:15;25.52;56.81
70170;DHT22;57543;45.442;9.212;2022-08-21T06:17:19;25.58;56.10
70170;DHT22;57543;45.442;9.212;2022-08-21T06:20:23;25.70;55.87
70170;DHT22;57543;45.442;9.212;2022-08-21T06:23:27;25.89;54.88
70170;DHT22;57543;45.442;9.212;2022-08-21T06:26:31;26.04;54.32
70170;DHT22;57543;45.442;9.212;2022-08-21T06:29:35;26.21;53.87
70170;DHT22;57543;45.442;9.212;2022-08-21T06:32:39;26.32;53.17
70170;DHT22;57543;45.442;9.212;2022-08-21T06:35:43;26.44;52.50
70170;DHT22;57543;45.442;9.212;2022-08-21T06:38:46;26.35;51.26
70170;DHT22;57543;45.442;9.212;2022-08-21T06:41:50;26.24;49.62
70170;DHT22;57543;45.442;9.212;2022-08-21T06:44:54;26.31;50.55
70170;DHT22;57543;45.442;9.212;2022-08-21T06:47:58;26.46;50.81
70170;DHT22;57543;45.442;9.212;2022-08-21T06:51:02;26.53;49.99
70170;DHT22;57543;45.442;9.212;2022-08-21T06:54:06;26.60;49.62
70170;DHT22;57543;45.442;9.212;2022-08-21T06:57:10;26.44;48.51
70170;DHT22;57543;45.442;9.212;2022-08-21T07:00:14;26.21;49.06
70170;DHT22;57543;45.442;9.212;2022-08-21T07:03:31;25.98;49.58
70170;DHT22;57543;45.442;9.212;2022-08-21T07:06:34;25.86;50.36
70170;DHT22;57543;45.442;9.212;2022-08-21T07:09:38;25.86;50.16
70170;DHT22;57543;45.442;9.212;2022-08-21T07:12:42;25.93;50.70
70170;DHT22;57543;45.442;9.212;2022-08-21T07:15:47;26.20;50.74
70170;DHT22;57543;45.442;9.212;2022-08-21T07:18:50;25.89;51.16
70170;DHT22;57543;45.442;9.212;2022-08-21T07:21:58;26.01;51.40
70170;DHT22;57543;45.442;9.212;2022-08-21T07:25:04;25.80;52.28
70170;DHT22;57543;45.442;9.212;2022-08-21T07:28:08;25.77;52.77
70170;DHT22;57543;45.442;9.212;2022-08-21T07:31:14;25.69;53.53
70170;DHT22;57543;45.442;9.212;2022-08-21T07:34:18;25.46;53.01
70170;DHT22;57543;45.442;9.212;2022-08-21T07:37:22;25.45;53.66
70170;DHT22;57543;45.442;9.212;2022-08-21T07:40:25;25.41;53.77
70170;DHT22;57543;45.442;9.212;2022-08-21T07:43:29;25.67;53.36
70170;DHT22;57543;45.442;9.212;2022-08-21T07:46:33;25.77;52.60
70170;DHT22;57543;45.442;9.212;2022-08-21T07:49:37;25.94;51.51
70170;DHT22;57543;45.442;9.212;2022-08-21T07:52:42;26.03;51.85
70170;DHT22;57543;45.442;9.212;2022-08-21T07:55:46;26.11;51.90
70170;DHT22;57543;45.442;9.212;2022-08-21T07:58:50;26.44;52.68
70170;DHT22;57543;45.442;9.212;2022-08-21T08:01:54;26.56;51.31
70170;DHT22;57543;45.442;9.212;2022-08-21T08:04:59;26.68;51.35
70170;DHT22;57543;45.442;9.212;2022-08-21T08:08:04;26.71;50.42
70170;DHT22;57543;45.442;9.212;2022-08-21T08:11:09;26.65;51.02
70170;DHT22;57543;45.442;9.212;2022-08-21T08:14:14;26.93;50.13
70170;DHT22;57543;45.442;9.212;2022-08-21T08:17:19;27.03;50.64
70170;DHT22;57543;45.442;9.212;2022-08-21T08:20:25;27.11;50.02
70170;DHT22;57543;45.442;9.212;2022-08-21T08:23:33;27.58;49.47
70170;DHT22;57543;45.442;9.212;2022-08-21T08:26:36;27.86;46.69
70170;DHT22;57543;45.442;9.212;2022-08-21T08:29:39;27.96;46.44
70170;DHT22;57543;45.442;9.212;2022-08-21T08:32:44;28.34;46.06
70170;DHT22;57543;45.442;9.212;2022-08-21T08:35:50;28.53;44.56
70170;DHT22;57543;45.442;9.212;2022-08-21T08:38:53;28.48;44.92
70170;DHT22;57543;45.442;9.212;2022-08-21T08:42:09;28.75;44.27
70170;DHT22;57543;45.442;9.212;2022-08-21T08:45:18;28.65;43.22
70170;DHT22;57543;45.442;9.212;2022-08-21T08:52:05;27.92;44.37
70170;DHT22;57543;45.442;9.212;2022-08-21T08:55:21;27.94;44.78
70170;DHT22;57543;45.442;9.212;2022-08-21T08:58:29;28.07;44.50
70170;DHT22;57543;45.442;9.212;2022-08-21T09:01:35;27.74;45.46
70170;DHT22;57543;45.442;9.212;2022-08-21T09:04:40;28.20;45.49
70170;DHT22;57543;45.442;9.212;2022-08-21T09:11:35;28.59;45.54
70170;DHT22;57543;45.442;9.212;2022-08-21T09:21:38;27.80;47.58
70170;DHT22;57543;45.442;9.212;2022-08-21T09:28:36;28.77;46.11
70170;DHT22;57543;45.442;9.212;2022-08-21T09:31:39;29.32;45.99
70170;DHT22;57543;45.442;9.212;2022-08-21T09:34:58;29.84;45.05
70170;DHT22;57543;45.442;9.212;2022-08-21T09:38:23;30.04;44.18
70170;DHT22;57543;45.442;9.212;2022-08-21T09:41:31;30.38;43.83
70170;DHT22;57543;45.442;9.212;2022-08-21T09:44:40;30.63;42.93
70170;DHT22;57543;45.442;9.212;2022-08-21T09:47:46;30.78;42.47
70170;DHT22;57543;45.442;9.212;2022-08-21T09:50:51;30.97;41.56
70170;DHT22;57543;45.442;9.212;2022-08-21T09:54:14;31.13;42.07
70170;DHT22;57543;45.442;9.212;2022-08-21T09:57:30;31.38;40.78
70170;DHT22;57543;45.442;9.212;2022-08-21T10:00:43;31.20;39.38
70170;DHT22;57543;45.442;9.212;2022-08-21T10:03:47;31.24;39.17
70170;DHT22;57543;45.442;9.212;2022-08-21T10:06:51;31.23;39.63
70170;DHT22;57543;45.442;9.212;2022-08-21T10:10:05;31.20;40.07
70170;DHT22;57543;45.442;9.212;2022-08-21T10:13:21;31.33;38.16
70170;DHT22;57543;45.442;9.212;2022-08-21T10:20:11;31.73;38.03
70170;DHT22;57543;45.442;9.212;2022-08-21T10:30:39;32.16;35.59
70170;DHT22;57543;45.442;9.212;2022-08-21T10:34:19;32.07;35.88
70170;DHT22;57543;45.442;9.212;2022-08-21T10:37:43;31.76;35.94
70170;DHT22;57543;45.442;9.212;2022-08-21T10:44:17;32.14;37.05
70170;DHT22;57543;45.442;9.212;2022-08-21T10:47:50;32.51;37.33
70170;DHT22;57543;45.442;9.212;2022-08-21T10:54:51;32.86;36.67
70170;DHT22;57543;45.442;9.212;2022-08-21T10:58:00;32.96;36.38
70170;DHT22;57543;45.442;9.212;2022-08-21T11:01:16;33.16;35.34
70170;DHT22;57543;45.442;9.212;2022-08-21T11:04:26;33.33;35.39
70170;DHT22;57543;45.442;9.212;2022-08-21T11:07:55;33.54;35.19
70170;DHT22;57543;45.442;9.212;2022-08-21T11:11:08;33.44;34.70
70170;DHT22;57543;45.442;9.212;2022-08-21T11:14:41;33.30;34.53
70170;DHT22;57543;45.442;9.212;2022-08-21T11:17:53;33.55;35.08
70170;DHT22;57543;45.442;9.212;2022-08-21T11:21:27;33.57;34.63
70170;DHT22;57543;45.442;9.212;2022-08-21T11:24:47;33.38;33.27
70170;DHT22;57543;45.442;9.212;2022-08-21T11:28:01;33.78;32.76
70170;DHT22;57543;45.442;9.212;2022-08-21T11:31:17;34.05;32.59
70170;DHT22;57543;45.442;9.212;2022-08-21T11:34:51;34.65;32.51
70170;DHT22;57543;45.442;9.212;2022-08-21T11:38:22;34.78;32.19
70170;DHT22;57543;45.442;9.212;2022-08-21T11:41:37;35.29;31.41
70170;DHT22;57543;45.442;9.212;2022-08-21T11:51:25;35.55;30.66
70170;DHT22;57543;45.442;9.212;2022-08-21T11:54:42;35.34;32.07
70170;DHT22;57543;45.442;9.212;2022-08-21T11:57:58;35.74;33.56
70170;DHT22;57543;45.442;9.212;2022-08-21T12:01:10;35.91;30.80
70170;DHT22;57543;45.442;9.212;2022-08-21T12:07:41;35.58;31.03
70170;DHT22;57543;45.442;9.212;2022-08-21T12:10:58;35.67;31.54
70170;DHT22;57543;45.442;9.212;2022-08-21T12:17:34;35.58;30.36
70170;DHT22;57543;45.442;9.212;2022-08-21T12:23:49;35.12;31.41
70170;DHT22;57543;45.442;9.212;2022-08-21T12:27:13;35.10;30.96
70170;DHT22;57543;45.442;9.212;2022-08-21T12:30:35;35.03;30.54
70170;DHT22;57543;45.442;9.212;2022-08-21T12:33:40;35.00;30.49
70170;DHT22;57543;45.442;9.212;2022-08-21T12:36:57;35.09;30.25
70170;DHT22;57543;45.442;9.212;2022-08-21T12:40:10;35.02;30.31
70170;DHT22;57543;45.442;9.212;2022-08-21T12:43:19;34.98;31.05
70170;DHT22;57543;45.442;9.212;2022-08-21T12:46:34;35.02;30.41
70170;DHT22;57543;45.442;9.212;2022-08-21T12:49:53;35.07;30.04
70170;DHT22;57543;45.442;9.212;2022-08-21T12:53:29;34.99;30.51
70170;DHT22;57543;45.442;9.212;2022-08-21T12:56:34;35.10;30.37
70170;DHT22;57543;45.442;9.212;2022-08-21T12:59:39;34.87;29.39
70170;DHT22;57543;45.442;9.212;2022-08-21T13:02:48;34.81;29.92
70170;DHT22;57543;45.442;9.212;2022-08-21T13:05:52;34.89;30.10
70170;DHT22;57543;45.442;9.212;2022-08-21T13:09:03;34.95;29.91
70170;DHT22;57543;45.442;9.212;2022-08-21T13:12:07;35.15;30.57
70170;DHT22;57543;45.442;9.212;2022-08-21T13:15:12;34.99;29.37
70170;DHT22;57543;45.442;9.212;2022-08-21T13:18:22;35.06;29.93
70170;DHT22;57543;45.442;9.212;2022-08-21T13:21:42;35.17;29.57
70170;DHT22;57543;45.442;9.212;2022-08-21T13:24:47;35.27;29.94
70170;DHT22;57543;45.442;9.212;2022-08-21T13:28:08;35.30;29.21
70170;DHT22;57543;45.442;9.212;2022-08-21T13:31:24;35.22;29.24
70170;DHT22;57543;45.442;9.212;2022-08-21T13:34:34;35.33;29.09
70170;DHT22;57543;45.442;9.212;2022-08-21T13:37:41;35.40;28.61
70170;DHT22;57543;45.442;9.212;2022-08-21T13:40:55;35.53;28.57
70170;DHT22;57543;45.442;9.212;2022-08-21T13:45:10;35.60;28.53
70170;DHT22;57543;45.442;9.212;2022-08-21T13:47:45;35.41;29.21
70170;DHT22;57543;45.442;9.212;2022-08-21T13:50:50;35.51;28.18
70170;DHT22;57543;45.442;9.212;2022-08-21T13:53:54;35.07;28.10
70170;DHT22;57543;45.442;9.212;2022-08-21T13:56:59;35.15;28.50
70170;DHT22;57543;45.442;9.212;2022-08-21T14:00:30;35.26;28.16
70170;DHT22;57543;45.442;9.212;2022-08-21T14:03:41;35.34;27.51
70170;DHT22;57543;45.442;9.212;2022-08-21T14:06:46;35.39;27.59
70170;DHT22;57543;45.442;9.212;2022-08-21T14:09:49;35.32;27.36
70170;DHT22;57543;45.442;9.212;2022-08-21T14:12:57;35.27;27.71
70170;DHT22;57543;45.442;9.212;2022-08-21T14:16:02;35.13;28.24
70170;DHT22;57543;45.442;9.212;2022-08-21T14:19:12;35.29;28.55
70170;DHT22;57543;45.442;9.212;2022-08-21T14:22:47;35.16;27.99
70170;DHT22;57543;45.442;9.212;2022-08-21T14:25:51;35.17;28.04
70170;DHT22;57543;45.442;9.212;2022-08-21T14:28:58;35.23;28.24
70170;DHT22;57543;45.442;9.212;2022-08-21T14:32:16;35.32;28.50
70170;DHT22;57543;45.442;9.212;2022-08-21T14:35:23;35.37;28.05
70170;DHT22;57543;45.442;9.212;2022-08-21T14:38:27;35.20;28.08
70170;DHT22;57543;45.442;9.212;2022-08-21T14:41:31;35.33;28.67
70170;DHT22;57543;45.442;9.212;2022-08-21T14:44:35;35.47;27.87
70170;DHT22;57543;45.442;9.212;2022-08-21T14:47:39;35.47;27.97
70170;DHT22;57543;45.442;9.212;2022-08-21T14:50:43;35.33;28.41
70170;DHT22;57543;45.442;9.212;2022-08-21T14:53:47;35.40;27.97
70170;DHT22;57543;45.442;9.212;2022-08-21T14:56:51;35.30;27.80
70170;DHT22;57543;45.442;9.212;2022-08-21T14:59:55;35.26;28.03
70170;DHT22;57543;45.442;9.212;2022-08-21T15:02:59;35.34;28.05
70170;DHT22;57543;45.442;9.212;2022-08-21T15:06:04;35.43;28.02
70170;DHT22;57543;45.442;9.212;2022-08-21T15:09:07;35.39;27.57
70170;DHT22;57543;45.442;9.212;2022-08-21T15:12:13;35.32;28.31
70170;DHT22;57543;45.442;9.212;2022-08-21T15:15:17;34.74;29.16
70170;DHT22;57543;45.442;9.212;2022-08-21T15:18:23;34.51;29.17
70170;DHT22;57543;45.442;9.212;2022-08-21T15:21:27;34.74;29.41
70170;DHT22;57543;45.442;9.212;2022-08-21T15:24:31;34.68;29.39
70170;DHT22;57543;45.442;9.212;2022-08-21T15:27:35;34.77;29.57
70170;DHT22;57543;45.442;9.212;2022-08-21T15:30:40;34.87;30.01
70170;DHT22;57543;45.442;9.212;2022-08-21T15:33:44;34.99;29.76
70170;DHT22;57543;45.442;9.212;2022-08-21T15:36:48;35.02;30.34
70170;DHT22;57543;45.442;9.212;2022-08-21T15:39:52;35.10;29.30
70170;DHT22;57543;45.442;9.212;2022-08-21T15:42:59;35.05;29.32
70170;DHT22;57543;45.442;9.212;2022-08-21T15:46:22;34.89;29.64
70170;DHT22;57543;45.442;9.212;2022-08-21T15:49:26;34.09;31.15
70170;DHT22;57543;45.442;9.212;2022-08-21T15:52:30;34.02;31.10
70170;DHT22;57543;45.442;9.212;2022-08-21T15:55:34;34.45;30.30
70170;DHT22;57543;45.442;9.212;2022-08-21T15:58:38;34.10;30.82
70170;DHT22;57543;45.442;9.212;2022-08-21T16:01:42;33.96;30.55
70170;DHT22;57543;45.442;9.212;2022-08-21T16:04:45;33.92;31.04
70170;DHT22;57543;45.442;9.212;2022-08-21T16:07:50;33.78;31.34
70170;DHT22;57543;45.442;9.212;2022-08-21T16:10:54;33.62;31.78
70170;DHT22;57543;45.442;9.212;2022-08-21T16:13:58;33.59;31.69
70170;DHT22;57543;45.442;9.212;2022-08-21T16:17:06;33.37;31.67
70170;DHT22;57543;45.442;9.212;2022-08-21T16:20:12;33.12;32.17
70170;DHT22;57543;45.442;9.212;2022-08-21T16:23:16;33.20;32.12
70170;DHT22;57543;45.442;9.212;2022-08-21T16:26:20;32.89;32.29
70170;DHT22;57543;45.442;9.212;2022-08-21T16:29:26;32.72;32.96
70170;DHT22;57543;45.442;9.212;2022-08-21T16:32:32;32.75;33.19
70170;DHT22;57543;45.442;9.212;2022-08-21T16:35:37;32.65;33.48
70170;DHT22;57543;45.442;9.212;2022-08-21T16:38:41;32.69;32.93
70170;DHT22;57543;45.442;9.212;2022-08-21T16:41:47;32.74;32.80
70170;DHT22;57543;45.442;9.212;2022-08-21T16:44:53;32.65;32.89
70170;DHT22;57543;45.442;9.212;2022-08-21T16:47:57;32.59;32.96
70170;DHT22;57543;45.442;9.212;2022-08-21T16:51:02;32.61;32.72
70170;DHT22;57543;45.442;9.212;2022-08-21T16:54:05;32.45;33.09
70170;DHT22;57543;45.442;9.212;2022-08-21T16:57:09;32.13;33.48
70170;DHT22;57543;45.442;9.212;2022-08-21T17:00:14;31.94;33.89
70170;DHT22;57543;45.442;9.212;2022-08-21T17:03:19;31.86;33.59
70170;DHT22;57543;45.442;9.212;2022-08-21T17:06:24;31.89;33.68
70170;DHT22;57543;45.442;9.212;2022-08-21T17:09:28;31.88;33.86
70170;DHT22;57543;45.442;9.212;2022-08-21T17:12:33;31.85;33.98
70170;DHT22;57543;45.442;9.212;2022-08-21T17:15:38;31.72;33.97
70170;DHT22;57543;45.442;9.212;2022-08-21T17:18:42;31.65;34.07
70170;DHT22;57543;45.442;9.212;2022-08-21T17:21:45;31.51;34.46
70170;DHT22;57543;45.442;9.212;2022-08-21T17:24:49;31.46;34.65
70170;DHT22;57543;45.442;9.212;2022-08-21T17:27:53;31.28;35.18
70170;DHT22;57543;45.442;9.212;2022-08-21T17:30:58;31.20;35.28
70170;DHT22;57543;45.442;9.212;2022-08-21T17:34:03;31.07;35.36
70170;DHT22;57543;45.442;9.212;2022-08-21T17:37:06;31.03;35.28
70170;DHT22;57543;45.442;9.212;2022-08-21T17:40:11;31.00;35.30
70170;DHT22;57543;45.442;9.212;2022-08-21T17:43:16;30.97;35.58
70170;DHT22;57543;45.442;9.212;2022-08-21T17:46:23;30.79;36.21
70170;DHT22;57543;45.442;9.212;2022-08-21T17:49:29;30.72;36.18
70170;DHT22;57543;45.442;9.212;2022-08-21T17:52:33;30.63;36.44
70170;DHT22;57543;45.442;9.212;2022-08-21T17:55:37;30.65;36.48
70170;DHT22;57543;45.442;9.212;2022-08-21T17:58:44;30.66;36.82
70170;DHT22;57543;45.442;9.212;2022-08-21T18:01:49;30.73;36.79
70170;DHT22;57543;45.442;9.212;2022-08-21T18:04:53;30.65;36.56
70170;DHT22;57543;45.442;9.212;2022-08-21T18:07:58;30.62;36.67
70170;DHT22;57543;45.442;9.212;2022-08-21T18:11:03;30.58;36.65
70170;DHT22;57543;45.442;9.212;2022-08-21T18:14:07;30.63;36.32
70170;DHT22;57543;45.442;9.212;2022-08-21T18:17:13;30.55;36.81
70170;DHT22;57543;45.442;9.212;2022-08-21T18:20:21;30.58;36.90
70170;DHT22;57543;45.442;9.212;2022-08-21T18:23:25;30.56;37.21
70170;DHT22;57543;45.442;9.212;2022-08-21T18:26:36;30.42;37.87
70170;DHT22;57543;45.442;9.212;2022-08-21T18:29:40;30.38;38.76
70170;DHT22;57543;45.442;9.212;2022-08-21T18:32:46;30.35;37.80
70170;DHT22;57543;45.442;9.212;2022-08-21T18:35:49;30.24;38.73
70170;DHT22;57543;45.442;9.212;2022-08-21T18:38:53;30.24;38.32
70170;DHT22;57543;45.442;9.212;2022-08-21T18:41:58;30.23;37.86
70170;DHT22;57543;45.442;9.212;2022-08-21T18:45:03;30.21;38.63
70170;DHT22;57543;45.442;9.212;2022-08-21T18:48:10;30.16;39.22
70170;DHT22;57543;45.442;9.212;2022-08-21T18:51:14;30.11;38.08
70170;DHT22;57543;45.442;9.212;2022-08-21T18:54:18;30.10;38.47
70170;DHT22;57543;45.442;9.212;2022-08-21T18:57:28;30.10;38.37
70170;DHT22;57543;45.442;9.212;2022-08-21T19:00:36;30.04;39.58
70170;DHT22;57543;45.442;9.212;2022-08-21T19:03:44;30.00;40.09
70170;DHT22;57543;45.442;9.212;2022-08-21T19:06:47;29.94;40.10
70170;DHT22;57543;45.442;9.212;2022-08-21T19:09:51;29.86;40.18
70170;DHT22;57543;45.442;9.212;2022-08-21T19:12:57;29.82;39.93
70170;DHT22;57543;45.442;9.212;2022-08-21T19:16:01;29.79;40.33
70170;DHT22;57543;45.442;9.212;2022-08-21T19:19:08;29.77;40.50
70170;DHT22;57543;45.442;9.212;2022-08-21T19:22:12;29.67;41.19
70170;DHT22;57543;45.442;9.212;2022-08-21T19:25:16;29.63;41.48
70170;DHT22;57543;45.442;9.212;2022-08-21T19:28:47;29.59;41.18
70170;DHT22;57543;45.442;9.212;2022-08-21T19:31:51;29.54;40.71
70170;DHT22;57543;45.442;9.212;2022-08-21T19:34:56;29.58;39.81
70170;DHT22;57543;45.442;9.212;2022-08-21T19:38:00;29.55;38.95
70170;DHT22;57543;45.442;9.212;2022-08-21T19:41:04;29.51;39.95
70170;DHT22;57543;45.442;9.212;2022-08-21T19:44:13;29.44;40.57
70170;DHT22;57543;45.442;9.212;2022-08-21T19:47:17;29.35;41.09
70170;DHT22;57543;45.442;9.212;2022-08-21T19:50:22;29.28;40.68
70170;DHT22;57543;45.442;9.212;2022-08-21T19:53:26;29.27;41.70
70170;DHT22;57543;45.442;9.212;2022-08-21T19:56:31;29.22;41.19
70170;DHT22;57543;45.442;9.212;2022-08-21T19:59:37;29.20;41.27
70170;DHT22;57543;45.442;9.212;2022-08-21T20:02:41;29.18;41.44
70170;DHT22;57543;45.442;9.212;2022-08-21T20:05:46;29.13;41.54
70170;DHT22;57543;45.442;9.212;2022-08-21T20:08:51;29.08;41.50
70170;DHT22;57543;45.442;9.212;2022-08-21T20:11:57;28.99;42.15
70170;DHT22;57543;45.442;9.212;2022-08-21T20:15:04;28.94;42.77
70170;DHT22;57543;45.442;9.212;2022-08-21T20:18:07;28.93;42.35
70170;DHT22;57543;45.442;9.212;2022-08-21T20:21:11;28.92;42.18
70170;DHT22;57543;45.442;9.212;2022-08-21T20:24:15;28.92;42.18
70170;DHT22;57543;45.442;9.212;2022-08-21T20:27:22;28.92;41.52
70170;DHT22;57543;45.442;9.212;2022-08-21T20:30:26;28.89;41.79
70170;DHT22;57543;45.442;9.212;2022-08-21T20:33:30;28.80;42.07